Time;durP1;ratioP1;P1;durP2;ratioP2;P2;SDS_P1;SDS_P2;PMS_P1;PMS_P2;Temp;Humidity;BMP_temperature;BMP_pressure;BME280_temperature;BME280_humidity;BME280_pressure;Samples;Min_cycle;Max_cycle;Signal;HPM_P1;HPM_P2
2021/07/24 00:01:19;;;;;;;18.13;13.80;;;19.30;73.80;;;;;;5026846;28;20061;-73
2021/07/24 00:03:45;;;;;;;17.58;13.38;;;19.30;74.00;;;;;;5008270;28;20512;-74
2021/07/24 00:06:10;;;;;;;17.33;12.80;;;19.30;74.00;;;;;;5018591;28;20484;-73
2021/07/24 00:08:36;;;;;;;18.88;12.43;;;19.20;74.20;;;;;;5004433;28;20081;-73
2021/07/24 00:11:03;;;;;;;19.20;13.45;;;19.20;74.10;;;;;;5009571;28;20045;-73
2021/07/24 00:13:30;;;;;;;18.15;13.95;;;19.30;74.10;;;;;;5006867;28;20037;-73
2021/07/24 00:15:55;;;;;;;19.50;14.10;;;19.30;73.90;;;;;;5010481;28;20034;-73
2021/07/24 00:18:21;;;;;;;18.70;13.10;;;19.30;74.10;;;;;;5007711;28;20056;-73
2021/07/24 00:20:47;;;;;;;17.13;12.93;;;19.30;73.90;;;;;;5012937;28;20054;-74
2021/07/24 00:23:12;;;;;;;18.05;13.70;;;19.40;73.70;;;;;;5011691;28;20038;-74
2021/07/24 00:25:41;;;;;;;19.30;13.85;;;19.40;73.60;;;;;;5009631;28;20092;-74
2021/07/24 00:28:07;;;;;;;19.70;14.23;;;19.30;73.80;;;;;;5004058;28;20041;-73
2021/07/24 00:30:40;;;;;;;18.02;13.02;;;19.30;73.90;;;;;;5012165;28;20030;-75
2021/07/24 00:33:06;;;;;;;18.40;13.43;;;19.30;74.00;;;;;;5007687;28;20034;-73
2021/07/24 00:35:33;;;;;;;19.27;13.60;;;19.30;74.10;;;;;;5011780;28;20037;-73
2021/07/24 00:37:59;;;;;;;18.33;13.63;;;19.20;74.10;;;;;;5012217;28;20441;-73
2021/07/24 00:40:26;;;;;;;17.67;13.38;;;19.10;74.30;;;;;;5015603;28;20033;-73
2021/07/24 00:42:53;;;;;;;20.65;14.18;;;19.20;74.10;;;;;;5010461;28;20042;-73
2021/07/24 00:45:20;;;;;;;19.58;13.75;;;19.20;74.40;;;;;;5007861;28;20030;-73
2021/07/24 00:47:50;;;;;;;22.45;14.50;;;19.20;74.30;;;;;;5012159;28;20503;-74
2021/07/24 00:50:16;;;;;;;17.73;13.32;;;19.20;74.30;;;;;;5004902;28;20548;-73
2021/07/24 00:52:43;;;;;;;19.73;13.40;;;19.20;74.40;;;;;;5011712;28;20132;-73
2021/07/24 00:55:12;;;;;;;18.35;14.05;;;19.20;74.20;;;;;;5012877;28;20497;-73
2021/07/24 00:57:40;;;;;;;21.88;14.55;;;19.10;74.20;;;;;;5011819;28;20440;-77
2021/07/24 01:00:08;;;;;;;19.33;13.85;;;19.10;74.40;;;;;;5006837;28;20109;-73
2021/07/24 01:02:33;;;;;;;17.63;14.90;;;19.10;74.40;;;;;;5008310;28;20066;-73
2021/07/24 01:05:01;;;;;;;19.27;14.30;;;19.00;74.80;;;;;;5007002;28;20050;-75
2021/07/24 01:07:27;;;;;;;19.73;13.48;;;19.00;74.90;;;;;;5010374;28;20065;-74
2021/07/24 01:09:53;;;;;;;17.70;14.15;;;19.00;74.80;;;;;;5014905;28;20377;-74
2021/07/24 01:12:19;;;;;;;17.13;13.85;;;19.00;74.80;;;;;;5016887;28;20342;-73
2021/07/24 01:14:45;;;;;;;20.00;13.68;;;19.00;74.70;;;;;;5016468;28;20037;-73
2021/07/24 01:17:10;;;;;;;18.63;14.15;;;19.00;74.60;;;;;;4995037;28;20045;-74
2021/07/24 01:19:36;;;;;;;17.88;14.05;;;19.00;74.60;;;;;;5011216;28;20049;-74
2021/07/24 01:22:02;;;;;;;21.95;14.73;;;19.00;74.70;;;;;;5007217;28;20041;-73
2021/07/24 01:24:28;;;;;;;18.38;13.95;;;18.90;74.80;;;;;;4998407;28;20038;-73
2021/07/24 01:26:53;;;;;;;20.30;14.85;;;18.90;74.90;;;;;;5001058;28;20034;-73
2021/07/24 01:29:21;;;;;;;20.95;15.43;;;18.90;74.90;;;;;;5002190;28;20038;-74
2021/07/24 01:31:47;;;;;;;18.02;14.32;;;18.80;75.10;;;;;;5005160;28;20117;-74
2021/07/24 01:34:13;;;;;;;18.17;14.20;;;18.80;75.00;;;;;;5016959;28;20120;-74
2021/07/24 01:36:38;;;;;;;17.95;14.13;;;18.80;75.10;;;;;;5001660;28;20040;-73
2021/07/24 01:39:05;;;;;;;18.83;14.40;;;18.80;75.10;;;;;;5012964;28;20040;-74
2021/07/24 01:41:30;;;;;;;17.27;14.38;;;18.80;75.40;;;;;;5000952;28;20128;-74
2021/07/24 01:43:56;;;;;;;18.63;14.07;;;18.70;75.70;;;;;;5014293;28;20165;-73
2021/07/24 01:46:22;;;;;;;19.38;14.40;;;18.70;75.60;;;;;;5023902;28;20504;-73
2021/07/24 01:49:10;;;;;;;22.00;15.00;;;18.60;75.80;;;;;;5024979;28;20029;-73
2021/07/24 01:54:43;;;;;;;21.85;15.45;;;18.60;76.20;;;;;;5025213;28;20049;-74
2021/07/24 01:57:11;;;;;;;21.13;15.43;;;18.60;76.40;;;;;;5027868;28;20057;-73
2021/07/24 01:59:43;;;;;;;21.40;16.02;;;18.50;76.50;;;;;;5023550;28;20036;-75
2021/07/24 02:02:11;;;;;;;24.10;16.52;;;18.50;76.50;;;;;;5029100;28;20449;-76
2021/07/24 02:04:39;;;;;;;23.05;16.77;;;18.50;76.60;;;;;;5025328;28;20099;-73
2021/07/24 02:07:10;;;;;;;19.52;15.90;;;18.40;76.80;;;;;;5028863;28;20180;-73
2021/07/24 02:09:36;;;;;;;19.10;15.77;;;18.40;77.00;;;;;;5027133;28;20366;-72
2021/07/24 02:12:03;;;;;;;23.05;16.80;;;18.30;77.30;;;;;;5026786;28;20030;-72
2021/07/24 02:14:33;;;;;;;22.13;17.02;;;18.20;77.80;;;;;;5029841;28;20116;-73
2021/07/24 02:16:59;;;;;;;23.33;17.48;;;18.00;78.40;;;;;;5027175;28;20679;-73
2021/07/24 02:19:26;;;;;;;21.05;16.13;;;17.80;79.20;;;;;;5026440;28;20059;-72
2021/07/24 02:21:52;;;;;;;24.33;17.00;;;17.90;79.10;;;;;;5030861;28;20128;-73
2021/07/24 02:24:17;;;;;;;23.17;17.00;;;17.90;78.90;;;;;;5026167;28;20132;-74
2021/07/24 02:26:43;;;;;;;22.23;16.23;;;17.90;79.20;;;;;;5026487;28;20033;-73
2021/07/24 02:29:10;;;;;;;25.35;18.02;;;17.80;79.20;;;;;;5025248;28;20065;-74
2021/07/24 02:31:36;;;;;;;21.55;17.05;;;17.80;79.20;;;;;;5029195;28;20033;-74
2021/07/24 02:34:01;;;;;;;25.40;17.85;;;17.80;79.50;;;;;;5026261;28;20048;-74
2021/07/24 02:36:27;;;;;;;22.27;17.58;;;17.80;79.50;;;;;;5026170;28;20247;-73
2021/07/24 02:38:53;;;;;;;21.83;17.08;;;17.80;79.60;;;;;;5023051;28;20053;-73
2021/07/24 02:41:18;;;;;;;23.30;18.92;;;17.60;80.10;;;;;;5026053;28;20033;-73
2021/07/24 02:43:44;;;;;;;22.15;17.90;;;17.60;80.30;;;;;;5029277;28;20111;-73
2021/07/24 02:46:10;;;;;;;23.95;18.08;;;17.50;80.60;;;;;;5027917;28;20112;-72
2021/07/24 02:48:36;;;;;;;26.88;19.25;;;17.50;80.80;;;;;;5026723;28;20034;-73
2021/07/24 02:51:02;;;;;;;24.30;17.88;;;17.40;80.90;;;;;;5025077;28;20037;-74
2021/07/24 02:53:27;;;;;;;24.42;18.75;;;17.50;80.70;;;;;;5033585;28;20527;-72
2021/07/24 02:55:53;;;;;;;26.75;18.30;;;17.50;80.80;;;;;;5031323;28;20165;-72
2021/07/24 02:58:19;;;;;;;27.05;19.20;;;17.50;80.90;;;;;;5031940;28;20044;-74
2021/07/24 03:00:45;;;;;;;24.85;18.77;;;17.50;80.80;;;;;;5035539;28;20528;-73
2021/07/24 03:03:10;;;;;;;21.55;18.02;;;17.50;80.90;;;;;;5030316;28;20041;-73
2021/07/24 03:05:36;;;;;;;25.35;18.95;;;17.50;80.80;;;;;;5028480;28;20088;-72
2021/07/24 03:08:02;;;;;;;25.45;19.17;;;17.60;80.70;;;;;;5027845;28;20175;-73
2021/07/24 03:10:28;;;;;;;27.90;18.38;;;17.60;80.60;;;;;;5032479;28;20373;-74
2021/07/24 03:12:53;;;;;;;20.98;17.00;;;17.60;80.50;;;;;;5028883;28;20052;-72
2021/07/24 03:15:19;;;;;;;24.05;17.95;;;17.60;80.30;;;;;;5030989;28;20037;-73
2021/07/24 03:17:45;;;;;;;24.30;18.02;;;17.70;80.40;;;;;;5033038;28;20029;-73
2021/07/24 03:20:11;;;;;;;25.98;18.67;;;17.60;80.40;;;;;;5028962;28;20082;-73
2021/07/24 03:22:36;;;;;;;29.77;21.13;;;17.70;80.30;;;;;;5024711;28;20045;-73
2021/07/24 03:25:03;;;;;;;29.10;20.02;;;17.70;80.40;;;;;;5034729;28;20033;-75
2021/07/24 03:27:28;;;;;;;27.88;19.63;;;17.60;80.60;;;;;;5029293;28;20042;-72
2021/07/24 03:29:54;;;;;;;27.55;19.17;;;17.60;80.70;;;;;;5027923;28;20334;-72
2021/07/24 03:32:19;;;;;;;27.15;19.13;;;17.60;80.60;;;;;;5032353;28;20372;-72
2021/07/24 03:34:45;;;;;;;27.33;19.85;;;17.60;80.70;;;;;;5031233;28;20681;-73
2021/07/24 03:37:11;;;;;;;24.13;19.35;;;17.60;80.60;;;;;;5026443;28;20445;-74
2021/07/24 03:39:36;;;;;;;27.40;20.08;;;17.60;80.50;;;;;;5032364;28;20106;-72
2021/07/24 03:42:02;;;;;;;24.02;19.42;;;17.60;80.70;;;;;;5027179;28;20029;-74
2021/07/24 03:44:29;;;;;;;24.13;18.27;;;17.60;80.90;;;;;;5034573;28;20050;-73
2021/07/24 03:46:55;;;;;;;25.05;18.98;;;17.60;81.00;;;;;;5019583;28;20389;-74
2021/07/24 03:49:20;;;;;;;25.70;20.42;;;17.60;80.90;;;;;;5020930;28;20033;-73
2021/07/24 03:51:46;;;;;;;25.08;20.50;;;17.60;80.80;;;;;;5027760;28;20045;-72
2021/07/24 03:54:12;;;;;;;28.88;20.58;;;17.60;80.90;;;;;;5029346;28;20044;-73
2021/07/24 03:56:37;;;;;;;25.35;19.45;;;17.60;81.00;;;;;;5032491;28;20045;-74
2021/07/24 03:59:03;;;;;;;25.63;18.40;;;17.60;81.10;;;;;;5032418;28;20110;-73
2021/07/24 04:01:29;;;;;;;25.45;19.33;;;17.60;80.80;;;;;;5034127;28;20514;-73
2021/07/24 04:03:55;;;;;;;26.23;19.40;;;17.70;81.00;;;;;;5037684;28;20163;-73
2021/07/24 04:06:24;;;;;;;27.38;19.45;;;17.70;80.70;;;;;;5032196;28;20096;-74
2021/07/24 04:08:50;;;;;;;26.77;18.67;;;17.70;80.80;;;;;;5028795;28;20056;-74
2021/07/24 04:11:19;;;;;;;28.77;20.08;;;17.80;80.70;;;;;;5028026;28;20053;-76
2021/07/24 04:13:45;;;;;;;26.08;18.88;;;17.90;80.40;;;;;;5032533;28;20590;-76
2021/07/24 04:16:10;;;;;;;28.45;19.15;;;17.80;80.30;;;;;;5034931;28;20128;-76
2021/07/24 04:18:37;;;;;;;27.80;19.40;;;17.80;80.40;;;;;;5022102;28;20540;-75
2021/07/24 04:21:03;;;;;;;27.33;20.48;;;17.80;80.40;;;;;;5025911;28;20137;-76
2021/07/24 04:23:29;;;;;;;26.17;18.70;;;17.80;80.30;;;;;;5024246;28;20049;-74
2021/07/24 04:25:55;;;;;;;24.98;19.90;;;17.90;80.20;;;;;;5035902;28;20037;-77
2021/07/24 04:28:20;;;;;;;24.95;18.63;;;17.90;80.30;;;;;;5029971;28;20407;-74
2021/07/24 04:30:46;;;;;;;27.17;19.65;;;17.90;80.20;;;;;;5034228;28;20042;-73
2021/07/24 04:33:12;;;;;;;25.52;19.02;;;17.90;80.30;;;;;;5026040;28;20041;-77
2021/07/24 04:35:42;;;;;;;25.70;19.45;;;17.90;80.20;;;;;;5030685;28;20095;-75
2021/07/24 04:38:08;;;;;;;25.95;19.40;;;17.90;80.20;;;;;;5028344;28;20060;-73
2021/07/24 04:40:36;;;;;;;25.88;20.17;;;17.90;80.20;;;;;;5034627;28;20427;-75
2021/07/24 04:43:02;;;;;;;25.10;18.88;;;18.00;80.10;;;;;;5030756;28;20132;-74
2021/07/24 04:45:27;;;;;;;23.70;19.02;;;18.00;80.10;;;;;;5030403;28;20224;-73
2021/07/24 04:47:53;;;;;;;23.60;18.27;;;18.00;80.10;;;;;;5029051;28;20045;-75
2021/07/24 04:50:19;;;;;;;27.45;19.63;;;18.10;80.10;;;;;;5030193;28;20071;-76
2021/07/24 04:52:45;;;;;;;24.77;19.48;;;18.10;79.90;;;;;;5025117;28;20048;-73
2021/07/24 04:55:11;;;;;;;23.95;18.05;;;18.10;79.90;;;;;;5035904;28;20119;-73
2021/07/24 04:57:37;;;;;;;23.67;19.65;;;18.10;79.70;;;;;;5031442;28;20037;-74
2021/07/24 05:00:10;;;;;;;22.02;17.83;;;18.10;79.70;;;;;;5029026;28;20033;-78
2021/07/24 05:02:36;;;;;;;26.83;19.35;;;18.10;79.80;;;;;;5027640;28;20124;-75
2021/07/24 05:05:02;;;;;;;23.13;18.58;;;18.10;79.90;;;;;;5035451;28;20060;-74
2021/07/24 05:07:29;;;;;;;23.30;18.42;;;18.10;79.70;;;;;;5030481;28;20049;-73
2021/07/24 05:09:55;;;;;;;25.33;18.83;;;18.20;79.40;;;;;;5032026;28;20033;-76
2021/07/24 05:12:20;;;;;;;23.38;18.15;;;18.20;79.40;;;;;;5034611;28;20122;-73
2021/07/24 05:14:46;;;;;;;24.33;18.67;;;18.20;79.20;;;;;;5034349;28;20041;-73
2021/07/24 05:17:13;;;;;;;24.17;19.15;;;18.20;79.20;;;;;;5031982;28;20419;-74
2021/07/24 05:19:45;;;;;;;25.08;18.73;;;18.30;79.10;;;;;;5030442;28;20028;-74
2021/07/24 05:22:12;;;;;;;24.73;18.90;;;18.30;79.10;;;;;;5033121;28;20435;-76
2021/07/24 05:24:43;;;;;;;23.83;19.27;;;18.30;79.10;;;;;;5027863;28;20392;-74
2021/07/24 05:27:13;;;;;;;25.33;20.05;;;18.30;79.20;;;;;;5028057;28;20030;-73
2021/07/24 05:29:39;;;;;;;23.60;18.05;;;18.40;79.00;;;;;;5027547;28;20022;-75
2021/07/24 05:32:06;;;;;;;24.98;18.10;;;18.50;78.80;;;;;;5027358;28;20029;-78
2021/07/24 05:34:31;;;;;;;25.52;18.35;;;18.50;78.40;;;;;;5030935;28;20099;-74
2021/07/24 05:36:57;;;;;;;24.13;17.77;;;18.50;78.70;;;;;;5029452;28;20496;-75
2021/07/24 05:39:23;;;;;;;22.63;17.02;;;18.50;78.50;;;;;;5030041;28;20114;-77
2021/07/24 05:41:48;;;;;;;26.42;17.60;;;18.60;78.70;;;;;;5026108;28;20045;-80
2021/07/24 05:44:17;;;;;;;25.38;17.67;;;18.60;78.30;;;;;;5029759;28;20080;-74
2021/07/24 05:46:46;;;;;;;23.83;18.55;;;18.70;78.20;;;;;;5023517;28;20083;-78
2021/07/24 05:49:11;;;;;;;23.92;19.27;;;18.70;77.90;;;;;;5028745;28;20117;-75
2021/07/24 05:51:39;;;;;;;21.50;18.10;;;18.70;77.80;;;;;;5032464;28;20116;-74
2021/07/24 05:54:06;;;;;;;25.23;18.25;;;18.80;78.10;;;;;;5031677;28;20048;-77
2021/07/24 05:56:33;;;;;;;23.83;18.73;;;18.70;78.00;;;;;;5022861;28;20392;-76
2021/07/24 05:58:58;;;;;;;25.63;18.25;;;18.70;78.20;;;;;;5028600;28;20044;-74
2021/07/24 06:01:24;;;;;;;23.77;18.83;;;18.70;78.00;;;;;;5030541;28;20033;-75
2021/07/24 06:03:50;;;;;;;22.33;17.80;;;18.70;78.00;;;;;;5026490;28;20041;-77
2021/07/24 06:06:15;;;;;;;23.55;18.35;;;18.60;78.20;;;;;;5025350;28;20041;-78
2021/07/24 06:08:41;;;;;;;23.58;18.40;;;18.60;78.60;;;;;;5024684;28;20029;-74
2021/07/24 06:11:07;;;;;;;25.15;18.13;;;18.70;78.70;;;;;;5027576;28;20175;-74
2021/07/24 06:13:33;;;;;;;23.48;18.95;;;18.70;78.50;;;;;;5027577;28;20034;-77
2021/07/24 06:15:59;;;;;;;27.40;18.98;;;18.80;78.30;;;;;;5025991;28;20562;-76
2021/07/24 06:18:25;;;;;;;24.13;18.65;;;18.80;78.00;;;;;;5041488;28;20532;-75
2021/07/24 06:20:51;;;;;;;20.15;16.95;;;18.80;78.20;;;;;;5024698;28;20160;-74
2021/07/24 06:23:17;;;;;;;22.75;17.92;;;18.90;77.90;;;;;;5030700;28;20544;-79
2021/07/24 06:25:48;;;;;;;26.17;18.67;;;18.90;77.80;;;;;;5021416;28;20049;-75
2021/07/24 06:28:14;;;;;;;22.77;18.50;;;18.90;77.60;;;;;;5027818;28;20029;-74
2021/07/24 06:30:40;;;;;;;28.08;18.50;;;18.90;77.70;;;;;;5023113;28;20042;-74
2021/07/24 06:33:06;;;;;;;21.80;17.50;;;18.80;77.60;;;;;;5033487;28;20037;-75
2021/07/24 06:35:32;;;;;;;22.50;18.80;;;18.90;78.00;;;;;;5030669;28;20057;-75
2021/07/24 06:37:58;;;;;;;25.08;19.73;;;18.80;78.20;;;;;;5022817;28;20041;-74
2021/07/24 06:40:25;;;;;;;23.20;19.17;;;18.80;78.00;;;;;;5027089;28;20869;-74
2021/07/24 06:42:51;;;;;;;28.88;20.17;;;18.80;78.10;;;;;;5024515;28;20053;-74
2021/07/24 06:45:17;;;;;;;24.83;20.05;;;18.70;78.50;;;;;;5022169;28;20076;-82
2021/07/24 06:47:42;;;;;;;27.75;19.30;;;18.60;79.10;;;;;;5022128;28;20043;-78
2021/07/24 06:50:08;;;;;;;24.83;20.35;;;18.60;79.50;;;;;;5023675;28;20065;-74
2021/07/24 06:52:34;;;;;;;22.45;18.25;;;18.50;79.90;;;;;;5021705;28;20088;-74
2021/07/24 06:55:00;;;;;;;22.50;18.52;;;18.60;79.60;;;;;;5022377;28;20038;-75
2021/07/24 06:57:25;;;;;;;26.45;19.25;;;18.70;79.20;;;;;;5025499;28;20037;-75
2021/07/24 06:59:51;;;;;;;24.90;19.40;;;18.90;78.30;;;;;;5023182;28;20041;-76
2021/07/24 07:02:17;;;;;;;24.42;18.73;;;18.90;78.40;;;;;;5023341;28;20488;-75
2021/07/24 07:04:42;;;;;;;23.88;19.58;;;19.00;77.90;;;;;;5020848;28;20130;-75
2021/07/24 07:07:08;;;;;;;24.33;18.77;;;19.10;77.70;;;;;;5020003;28;20041;-74
2021/07/24 07:09:34;;;;;;;25.58;18.80;;;19.10;77.40;;;;;;5025030;28;20269;-77
2021/07/24 07:12:00;;;;;;;29.20;19.10;;;19.20;77.00;;;;;;5023310;28;20030;-74
2021/07/24 07:14:26;;;;;;;26.13;19.42;;;19.30;77.10;;;;;;5025837;28;20089;-80
2021/07/24 07:16:52;;;;;;;25.02;19.48;;;19.50;76.50;;;;;;5022140;28;20037;-74
2021/07/24 07:19:19;;;;;;;25.40;19.20;;;19.30;76.50;;;;;;5019306;28;20452;-75
2021/07/24 07:21:45;;;;;;;24.10;18.75;;;19.40;76.50;;;;;;5019030;28;20072;-74
2021/07/24 07:24:11;;;;;;;27.17;19.63;;;19.50;76.20;;;;;;5020355;28;20651;-78
2021/07/24 07:26:37;;;;;;;23.83;18.50;;;19.40;76.30;;;;;;5022314;28;20033;-74
2021/07/24 07:29:03;;;;;;;23.17;17.88;;;19.40;76.60;;;;;;5023257;28;20033;-74
2021/07/24 07:31:33;;;;;;;24.38;18.83;;;19.50;76.40;;;;;;5028757;28;20432;-76
2021/07/24 07:33:59;;;;;;;23.90;19.52;;;19.50;76.30;;;;;;5023887;28;20033;-75
2021/07/24 07:36:24;;;;;;;25.27;19.65;;;19.50;76.40;;;;;;5020635;28;20046;-76
2021/07/24 07:38:51;;;;;;;27.05;20.33;;;19.50;76.30;;;;;;5025712;28;20112;-74
2021/07/24 07:41:17;;;;;;;22.27;18.08;;;19.60;76.40;;;;;;5026392;28;20238;-79
2021/07/24 07:43:47;;;;;;;23.65;18.85;;;19.70;76.10;;;;;;5019979;28;20049;-74
2021/07/24 07:46:13;;;;;;;23.77;19.60;;;19.80;75.70;;;;;;5022740;28;20041;-73
2021/07/24 07:48:39;;;;;;;26.08;19.17;;;20.00;75.10;;;;;;5024719;28;20389;-74
2021/07/24 07:51:06;;;;;;;22.77;20.13;;;20.10;74.80;;;;;;5015517;28;20029;-73
2021/07/24 07:53:32;;;;;;;22.33;18.90;;;20.20;74.70;;;;;;5022704;28;20048;-71
2021/07/24 07:55:58;;;;;;;26.42;19.58;;;20.30;74.90;;;;;;5024348;28;20499;-71
2021/07/24 07:58:24;;;;;;;22.00;17.38;;;20.50;74.40;;;;;;5023512;28;20068;-71
2021/07/24 08:00:51;;;;;;;22.27;18.20;;;20.60;74.20;;;;;;5021430;28;20069;-72
2021/07/24 08:03:17;;;;;;;21.48;17.60;;;20.70;73.50;;;;;;5023784;28;20128;-71
2021/07/24 08:05:42;;;;;;;23.35;17.70;;;20.70;73.60;;;;;;5023131;28;20095;-71
2021/07/24 08:08:08;;;;;;;23.45;19.65;;;20.80;73.10;;;;;;5026752;28;20029;-72
2021/07/24 08:10:34;;;;;;;24.42;18.80;;;20.80;72.70;;;;;;5024063;28;20481;-71
2021/07/24 08:13:12;;;;;;;21.98;18.95;;;20.90;72.70;;;;;;5025614;28;20053;-71
2021/07/24 08:15:38;;;;;;;25.20;19.52;;;20.90;72.50;;;;;;5027048;28;20053;-72
2021/07/24 08:18:04;;;;;;;22.98;18.23;;;20.90;72.30;;;;;;5025290;28;20152;-71
2021/07/24 08:20:29;;;;;;;22.83;18.85;;;21.00;72.00;;;;;;5018510;28;20057;-71
2021/07/24 08:22:55;;;;;;;24.27;19.85;;;21.00;72.60;;;;;;5023096;28;20539;-70
2021/07/24 08:25:21;;;;;;;29.77;20.30;;;20.80;72.50;;;;;;5019320;28;20057;-71
2021/07/24 08:27:46;;;;;;;26.58;20.70;;;20.60;73.50;;;;;;5017987;28;20048;-72
2021/07/24 08:30:12;;;;;;;25.17;18.80;;;20.70;73.50;;;;;;5027983;28;20029;-70
2021/07/24 08:32:38;;;;;;;25.65;19.17;;;20.70;73.50;;;;;;5022237;28;20047;-72
2021/07/24 08:35:04;;;;;;;21.42;18.38;;;20.90;73.20;;;;;;5025901;28;20091;-72
2021/07/24 08:37:31;;;;;;;23.95;19.58;;;21.10;73.10;;;;;;5019603;28;20029;-71
2021/07/24 08:39:56;;;;;;;24.70;18.83;;;21.10;72.90;;;;;;5025651;28;20421;-71
2021/07/24 08:42:36;;;;;;;23.50;18.33;;;21.30;72.40;;;;;;5026516;28;20524;-72
2021/07/24 08:45:03;;;;;;;23.48;18.95;;;21.40;71.90;;;;;;5029059;28;20040;-72
2021/07/24 08:47:29;;;;;;;18.70;16.58;;;21.50;72.00;;;;;;5025220;28;20719;-71
2021/07/24 08:49:56;;;;;;;23.83;18.48;;;21.60;71.90;;;;;;5028611;28;20034;-72
2021/07/24 08:52:27;;;;;;;24.42;18.75;;;21.70;71.20;;;;;;5024060;28;20036;-71
2021/07/24 08:54:53;;;;;;;23.73;18.77;;;21.80;70.60;;;;;;5032195;28;20072;-71
2021/07/24 08:57:24;;;;;;;24.08;19.02;;;21.80;70.80;;;;;;5030390;28;20025;-72
2021/07/24 08:59:51;;;;;;;24.20;18.42;;;21.90;70.90;;;;;;5030735;28;20400;-71
2021/07/24 09:02:24;;;;;;;22.00;17.88;;;21.90;70.80;;;;;;5031191;28;20514;-71
2021/07/24 09:04:52;;;;;;;24.00;17.80;;;22.00;70.40;;;;;;5024716;28;20048;-73
2021/07/24 09:07:19;;;;;;;20.52;18.33;;;22.10;70.30;;;;;;5023678;28;20083;-72
2021/07/24 09:09:48;;;;;;;20.83;17.17;;;22.20;70.10;;;;;;5021267;28;20064;-72
2021/07/24 09:12:13;;;;;;;25.20;18.85;;;22.30;69.90;;;;;;5016987;28;20041;-71
2021/07/24 09:14:39;;;;;;;25.55;18.25;;;22.40;69.70;;;;;;5018927;28;20030;-72
2021/07/24 09:17:09;;;;;;;21.88;17.60;;;22.40;69.90;;;;;;5019920;28;20581;-71
2021/07/24 09:19:36;;;;;;;21.85;17.50;;;22.50;69.50;;;;;;5020828;28;20053;-71
2021/07/24 09:22:01;;;;;;;24.13;18.08;;;22.60;69.80;;;;;;5022242;28;20064;-73
2021/07/24 09:24:27;;;;;;;21.73;17.75;;;22.60;68.80;;;;;;5025128;28;20389;-71
2021/07/24 09:26:53;;;;;;;21.38;18.20;;;22.60;68.70;;;;;;5024449;28;20071;-71
2021/07/24 09:29:20;;;;;;;26.67;19.55;;;22.70;68.00;;;;;;5029782;28;20033;-72
2021/07/24 09:31:46;;;;;;;21.98;17.40;;;22.80;68.20;;;;;;5027004;28;20036;-75
2021/07/24 09:34:14;;;;;;;21.17;17.02;;;22.90;67.70;;;;;;5018950;28;20026;-71
2021/07/24 09:36:41;;;;;;;19.88;16.95;;;22.90;68.10;;;;;;5023875;28;20029;-71
2021/07/24 09:39:10;;;;;;;23.70;17.85;;;23.00;67.60;;;;;;5021371;28;20033;-71
2021/07/24 09:41:43;;;;;;;24.73;19.20;;;23.20;66.70;;;;;;5026920;28;20045;-71
2021/07/24 09:44:09;;;;;;;20.67;16.60;;;23.10;65.90;;;;;;5022522;28;20045;-71
2021/07/24 09:46:35;;;;;;;21.10;18.13;;;23.10;65.90;;;;;;5019266;28;20426;-71
2021/07/24 09:49:16;;;;;;;19.88;16.33;;;23.20;65.20;;;;;;5023804;28;20465;-72
2021/07/24 09:51:45;;;;;;;25.45;18.20;;;23.30;65.50;;;;;;5021470;28;20531;-72
2021/07/24 09:54:28;;;;;;;20.70;17.08;;;23.40;63.90;;;;;;5023933;28;20042;-75
2021/07/24 09:56:54;;;;;;;21.92;16.73;;;23.50;64.90;;;;;;5018296;28;20038;-75
2021/07/24 09:59:28;;;;;;;22.23;17.67;;;23.60;64.20;;;;;;5020939;28;20037;-71
2021/07/24 10:01:53;;;;;;;21.35;17.05;;;23.60;63.70;;;;;;5022320;28;20037;-71
2021/07/24 10:04:33;;;;;;;22.38;17.90;;;23.50;64.10;;;;;;5022745;28;20060;-70
2021/07/24 10:07:03;;;;;;;19.52;16.75;;;23.60;64.40;;;;;;5023214;28;20116;-70
2021/07/24 10:09:33;;;;;;;19.90;17.08;;;23.70;64.50;;;;;;5022329;28;20372;-70
2021/07/24 10:12:00;;;;;;;20.80;16.92;;;23.80;63.50;;;;;;5016856;28;20041;-71
2021/07/24 10:14:26;;;;;;;21.30;17.88;;;24.00;63.40;;;;;;5020979;28;20029;-70
2021/07/24 10:16:53;;;;;;;21.00;17.67;;;24.10;63.40;;;;;;5020037;28;20029;-71
2021/07/24 10:19:21;;;;;;;21.20;18.33;;;24.30;61.90;;;;;;5024096;28;20037;-70
2021/07/24 10:21:48;;;;;;;19.10;16.63;;;24.20;63.00;;;;;;5025578;28;20065;-70
2021/07/24 10:24:14;;;;;;;22.60;17.88;;;24.40;62.30;;;;;;5034413;28;20143;-70
2021/07/24 10:26:48;;;;;;;20.05;16.30;;;24.50;61.80;;;;;;5019087;28;20037;-71
2021/07/24 10:29:27;;;;;;;20.10;16.45;;;24.60;61.40;;;;;;5024599;28;20108;-70
2021/07/24 10:32:01;;;;;;;22.77;18.65;;;24.80;60.20;;;;;;5022246;28;20120;-71
2021/07/24 10:34:31;;;;;;;20.17;16.75;;;25.00;60.50;;;;;;5028906;28;20109;-70
2021/07/24 10:36:57;;;;;;;22.33;17.75;;;25.00;60.10;;;;;;5027181;28;20030;-70
2021/07/24 10:39:23;;;;;;;22.23;18.58;;;25.20;59.00;;;;;;5025948;28;20366;-72
2021/07/24 10:42:08;;;;;;;22.13;18.15;;;25.10;58.90;;;;;;5020363;28;20044;-70
2021/07/24 10:44:42;;;;;;;21.15;17.67;;;25.20;59.40;;;;;;5023287;28;20401;-71
2021/07/24 10:47:14;;;;;;;20.50;17.75;;;25.50;59.00;;;;;;5023187;28;20129;-70
2021/07/24 10:49:46;;;;;;;22.52;18.30;;;25.50;59.30;;;;;;5026153;28;20481;-71
2021/07/24 10:52:11;;;;;;;24.08;19.00;;;25.60;59.00;;;;;;5031195;28;20488;-70
2021/07/24 10:54:52;;;;;;;24.08;19.67;;;25.50;58.40;;;;;;5024933;28;20032;-71
2021/07/24 10:58:02;;;;;;;21.17;17.02;;;25.60;58.30;;;;;;5025459;28;20040;-71
2021/07/24 11:00:32;;;;;;;24.05;17.58;;;25.70;58.10;;;;;;5005100;28;20040;-73
2021/07/24 11:02:58;;;;;;;20.80;16.90;;;26.00;57.20;;;;;;5024194;28;20520;-72
2021/07/24 11:05:26;;;;;;;22.48;19.20;;;26.00;56.90;;;;;;5026221;28;20499;-71
2021/07/24 11:07:52;;;;;;;20.85;18.65;;;25.90;57.10;;;;;;5027992;28;20057;-71
2021/07/24 11:10:18;;;;;;;24.27;19.85;;;26.10;58.00;;;;;;5024438;28;20037;-71
2021/07/24 11:12:43;;;;;;;23.35;18.88;;;26.20;57.20;;;;;;5030274;28;20052;-71
2021/07/24 11:15:18;;;;;;;22.10;19.38;;;26.30;56.60;;;;;;5024048;28;20025;-71
2021/07/24 11:17:43;;;;;;;23.83;21.23;;;26.10;56.60;;;;;;5027639;28;20400;-71
2021/07/24 11:20:09;;;;;;;22.85;19.88;;;26.10;57.10;;;;;;5028628;28;20021;-71
2021/07/24 11:22:55;;;;;;;23.58;20.83;;;26.10;57.30;;;;;;5029404;28;20042;-72
2021/07/24 11:25:21;;;;;;;23.40;20.08;;;26.20;56.60;;;;;;5036058;28;20060;-74
2021/07/24 11:27:48;;;;;;;24.73;20.52;;;26.10;56.30;;;;;;5029391;28;20045;-71
2021/07/24 11:30:15;;;;;;;22.85;19.80;;;26.30;57.10;;;;;;5025454;28;20045;-70
2021/07/24 11:32:42;;;;;;;23.00;20.10;;;26.50;56.00;;;;;;5027972;28;20516;-71
2021/07/24 11:35:13;;;;;;;20.17;17.25;;;27.00;55.90;;;;;;5025490;28;20223;-71
2021/07/24 11:37:44;;;;;;;22.83;19.02;;;27.30;55.60;;;;;;5027126;28;20049;-72
2021/07/24 11:40:18;;;;;;;23.98;20.08;;;27.50;54.00;;;;;;5029523;28;20072;-70
2021/07/24 11:43:04;;;;;;;23.95;19.80;;;27.50;54.30;;;;;;5023606;28;20439;-70
2021/07/24 11:45:31;;;;;;;23.40;19.83;;;27.20;53.40;;;;;;5021738;28;20033;-75
2021/07/24 11:48:16;;;;;;;24.58;19.98;;;27.10;53.70;;;;;;5023568;28;20401;-70
2021/07/24 11:50:44;;;;;;;24.23;20.98;;;27.00;55.00;;;;;;5034817;28;20505;-71
2021/07/24 11:53:13;;;;;;;26.48;20.17;;;27.00;55.10;;;;;;5008804;28;20042;-72
2021/07/24 11:55:40;;;;;;;21.98;18.80;;;27.10;55.20;;;;;;4999516;28;20034;-71
2021/07/24 11:58:09;;;;;;;22.10;18.85;;;27.10;55.30;;;;;;5003496;28;20037;-70
2021/07/24 12:00:37;;;;;;;25.35;20.05;;;27.10;54.60;;;;;;5010685;28;20033;-70
2021/07/24 12:03:32;;;;;;;22.00;19.10;;;27.20;54.70;;;;;;5028300;28;20037;-73
2021/07/24 12:06:12;;;;;;;23.13;20.65;;;27.30;54.70;;;;;;5008922;28;20195;-74
2021/07/24 12:08:46;;;;;;;24.13;19.17;;;27.20;54.50;;;;;;5028614;28;20036;-70
2021/07/24 12:11:15;;;;;;;;;;;27.10;54.70;;;;;;5034382;28;20129;-71
2021/07/24 12:13:41;;;;;;;22.25;19.38;;;27.30;55.30;;;;;;5026437;28;20364;-73
2021/07/24 12:16:11;;;;;;;23.48;19.58;;;27.60;55.50;;;;;;5048745;28;20431;-71
2021/07/24 12:18:41;;;;;;;23.30;19.25;;;27.70;54.80;;;;;;5031971;28;20388;-70
2021/07/24 12:21:13;;;;;;;23.90;20.38;;;27.80;54.10;;;;;;5039214;28;20033;-71
2021/07/24 12:23:43;;;;;;;25.42;21.13;;;27.80;53.50;;;;;;5030935;28;20037;-70
2021/07/24 12:26:11;;;;;;;23.45;20.98;;;27.90;53.60;;;;;;5029681;28;20133;-72
2021/07/24 12:28:38;;;;;;;24.23;21.73;;;27.60;54.30;;;;;;5025032;28;20037;-74
2021/07/24 12:31:23;;;;;;;24.38;21.60;;;27.00;56.20;;;;;;5028456;28;20064;-73
2021/07/24 12:33:53;;;;;;;23.70;20.00;;;27.00;57.50;;;;;;5026902;28;20038;-70